createdAt,value
2019-01-29T06:23:58.198Z,3.98
2019-01-29T06:26:26.923Z,5.15
2019-01-29T06:28:58.733Z,5.03
2019-01-29T06:31:30.273Z,4.90
2019-01-29T06:33:59.671Z,4.67
2019-01-29T06:36:29.429Z,4.65
2019-01-29T06:38:58.921Z,4.85
2019-01-29T06:41:28.105Z,4.83
2019-01-29T06:43:57.008Z,5.12
2019-01-29T06:46:28.358Z,4.95
2019-01-29T06:49:00.933Z,5.35
2019-01-29T06:51:30.324Z,5.95
2019-01-29T06:53:59.719Z,5.62
2019-01-29T06:56:31.594Z,5.45
2019-01-29T06:59:04.272Z,5.42
2019-01-29T07:01:33.677Z,5.92
2019-01-29T07:04:04.219Z,5.75
2019-01-29T07:06:36.173Z,6.15
2019-01-29T07:09:12.197Z,6.22
2019-01-29T07:11:42.150Z,5.72
2019-01-29T07:14:11.651Z,5.42
2019-01-29T07:16:52.870Z,5.95
2019-01-29T07:19:28.092Z,5.28
2019-01-29T07:21:58.294Z,5.78
2019-01-29T07:24:42.608Z,5.33
2019-01-29T07:27:09.790Z,5.85
2019-01-29T07:29:42.491Z,6.60
2019-01-29T07:32:13.576Z,6.85
2019-01-29T07:34:43.440Z,6.65
2019-01-29T07:37:21.817Z,6.78
2019-01-29T07:39:46.969Z,6.28
2019-01-29T07:42:16.623Z,7.67
2019-01-29T07:44:46.274Z,7.70
2019-01-29T18:25:20.010Z,11.45
2019-01-29T18:27:48.811Z,11.55
2019-01-29T21:03:34.752Z,17.60
2019-01-29T21:06:05.158Z,14.70
2019-01-29T21:08:36.717Z,15.23
2019-01-29T21:11:06.879Z,14.70
2019-01-29T21:13:37.826Z,13.38
2019-01-29T21:16:07.927Z,15.08
2019-01-29T21:18:39.855Z,14.70
2019-01-29T21:21:08.934Z,15.58
2019-01-29T21:23:37.637Z,15.40
2019-01-29T21:26:08.232Z,14.07
2019-01-29T21:28:37.386Z,14.53
2019-01-29T21:31:06.930Z,14.85
2019-01-29T21:33:36.550Z,13.25
2019-01-29T21:36:06.101Z,14.50
2019-01-29T21:38:35.451Z,14.25
2019-01-29T21:41:04.889Z,14.28
2019-01-29T21:43:34.152Z,14.65
2019-01-29T21:46:03.887Z,15.38
2019-01-29T21:48:33.194Z,15.25
2019-01-29T21:51:03.429Z,14.15
2019-01-29T21:53:34.665Z,15.80
2019-01-29T21:56:04.200Z,15.43
2019-01-29T21:58:33.115Z,16.23
2019-01-29T22:01:02.403Z,17.48
2019-01-29T22:03:35.476Z,16.35
2019-01-29T22:06:05.597Z,15.45
2019-01-29T22:08:34.830Z,16.12
2019-01-29T22:11:05.214Z,16.45
2019-01-29T22:13:34.957Z,15.10
2019-01-29T22:16:05.866Z,15.98
2019-01-29T22:18:37.099Z,15.38
2019-01-29T22:21:07.505Z,15.08
2019-01-29T22:23:36.376Z,16.23
2019-01-29T22:26:05.694Z,15.80
2019-01-29T22:28:35.954Z,17.27
2019-01-29T22:31:05.054Z,16.35
2019-01-29T22:33:35.524Z,15.63
2019-01-29T22:36:06.217Z,16.57
2019-01-29T22:38:35.470Z,17.25
2019-01-29T22:41:04.636Z,16.97
2019-01-29T22:43:33.575Z,16.35
2019-01-29T22:46:02.212Z,16.17
2019-01-29T22:48:30.889Z,17.20
2019-01-29T22:50:59.780Z,17.85
2019-01-29T22:53:30.236Z,17.35
2019-01-29T22:55:59.902Z,18.32
2019-01-29T22:58:29.914Z,16.25
2019-01-29T23:01:35.063Z,17.62
2019-01-29T23:04:22.132Z,15.23
2019-01-29T23:07:15.793Z,16.30
2019-01-29T23:09:45.120Z,16.70
2019-01-29T23:12:14.311Z,17.02
2019-01-29T23:14:43.360Z,17.67
2019-01-29T23:17:13.080Z,17.98
2019-01-29T23:19:42.269Z,17.23
2019-01-29T23:22:11.545Z,16.77
2019-01-29T23:24:41.246Z,16.75
2019-01-29T23:27:09.973Z,17.48
2019-01-29T23:29:43.513Z,18.62
2019-01-29T23:32:12.666Z,17.65
2019-01-29T23:34:41.776Z,18.02
2019-01-29T23:37:10.805Z,19.07
2019-01-29T23:39:41.971Z,17.40
2019-01-29T23:42:12.076Z,16.93
2019-01-29T23:44:41.631Z,18.50
2019-01-29T23:47:10.828Z,18.45
2019-01-29T23:49:39.704Z,18.73
2019-01-29T23:52:10.099Z,19.52
2019-01-29T23:54:43.014Z,18.55
2019-01-29T23:57:11.901Z,19.55
2019-01-29T23:59:41.640Z,20.43
